Time;durP1;ratioP1;P1;durP2;ratioP2;P2;SDS_P1;SDS_P2;PMS_P1;PMS_P2;Temp;Humidity;BMP_temperature;BMP_pressure;BME280_temperature;BME280_humidity;BME280_pressure;Samples;Min_cycle;Max_cycle;Signal;HPM_P1;HPM_P2
2022/01/01 00:00:45;;;;;;;76.68;33.25;;;10.40;99.90;;;;;;4975257;28;20424;-86
2022/01/01 00:03:10;;;;;;;71.15;27.83;;;10.50;99.90;;;;;;4975246;28;20062;-86
2022/01/01 00:05:36;;;;;;;82.32;34.53;;;12.00;99.90;;;;;;4991936;28;20045;-85
2022/01/01 00:08:05;;;;;;;76.75;26.52;;;11.00;99.90;;;;;;4975337;28;20054;-86
2022/01/01 00:10:31;;;;;;;79.72;29.52;;;10.80;99.90;;;;;;4975478;28;20060;-85
2022/01/01 00:12:57;;;;;;;61.95;24.08;;;11.50;99.90;;;;;;4975280;28;20050;-85
2022/01/01 00:15:23;;;;;;;61.72;25.48;;;10.60;99.90;;;;;;4975115;28;20141;-85
2022/01/01 00:17:49;;;;;;;63.97;23.27;;;10.80;99.90;;;;;;4975331;28;20839;-85
2022/01/01 00:20:16;;;;;;;63.15;25.02;;;10.80;99.90;;;;;;4974965;28;20104;-86
2022/01/01 00:22:43;;;;;;;83.00;35.60;;;10.50;99.90;;;;;;4974883;28;20057;-85
2022/01/01 00:25:10;;;;;;;68.13;30.45;;;10.50;99.90;;;;;;4975142;28;20053;-86
2022/01/01 00:27:36;;;;;;;76.03;25.85;;;10.90;99.90;;;;;;4991331;28;20050;-85
2022/01/01 00:30:03;;;;;;;67.03;25.55;;;11.40;99.90;;;;;;4975219;28;20057;-84
2022/01/01 00:32:29;;;;;;;76.63;29.23;;;10.90;99.90;;;;;;4975069;28;20045;-86
2022/01/01 00:34:55;;;;;;;80.10;29.60;;;10.90;99.90;;;;;;4991287;28;20100;-86
2022/01/01 00:37:20;;;;;;;76.43;31.08;;;11.30;99.90;;;;;;4990824;28;20042;-86
2022/01/01 00:39:46;;;;;;;78.03;34.42;;;11.40;99.90;;;;;;4974848;28;20057;-85
2022/01/01 00:42:12;;;;;;;78.35;32.58;;;10.90;99.90;;;;;;4974643;28;20084;-85
2022/01/01 00:44:38;;;;;;;78.70;33.10;;;11.90;99.90;;;;;;4974529;28;20137;-86
2022/01/01 00:47:04;;;;;;;89.90;34.05;;;10.90;99.90;;;;;;4974605;28;20372;-86
2022/01/01 00:49:30;;;;;;;93.57;39.15;;;10.90;99.90;;;;;;4990853;28;20081;-85
2022/01/01 00:51:56;;;;;;;82.32;36.17;;;11.00;99.90;;;;;;4990429;28;20049;-86
2022/01/01 00:54:22;;;;;;;81.28;30.52;;;10.80;99.90;;;;;;4974578;28;20056;-85
2022/01/01 00:56:48;;;;;;;75.53;28.00;;;11.80;99.90;;;;;;4974397;28;20081;-85
2022/01/01 00:59:15;;;;;;;82.60;26.80;;;11.20;99.90;;;;;;4974411;28;20096;-85
2022/01/01 01:01:41;;;;;;;67.75;25.00;;;11.90;99.90;;;;;;4973886;28;20066;-85
2022/01/01 01:04:07;;;;;;;66.43;23.13;;;11.30;99.90;;;;;;4991054;28;20042;-85
2022/01/01 01:06:33;;;;;;;67.72;21.48;;;10.40;99.90;;;;;;4990589;28;20459;-86
2022/01/01 01:09:00;;;;;;;62.20;24.67;;;10.40;99.90;;;;;;4974074;28;20042;-86
2022/01/01 01:11:28;;;;;;;78.20;24.70;;;10.30;99.90;;;;;;4974602;28;20077;-85
2022/01/01 01:14:07;;;;;;;68.13;23.85;;;10.40;99.90;;;;;;4974346;28;20107;-85
2022/01/01 01:16:33;;;;;;;76.93;23.70;;;11.20;99.90;;;;;;4974565;28;20058;-85
2022/01/01 01:18:59;;;;;;;86.53;24.17;;;10.40;99.90;;;;;;4991141;28;20042;-86
2022/01/01 01:21:25;;;;;;;59.38;22.75;;;10.50;99.90;;;;;;4976508;28;20046;-85
2022/01/01 01:23:51;;;;;;;58.60;21.20;;;10.30;99.90;;;;;;4975053;28;20117;-85
2022/01/01 01:26:17;;;;;;;62.28;21.17;;;10.30;99.90;;;;;;4974323;28;20305;-86
2022/01/01 01:28:48;;;;;;;78.38;24.83;;;9.70;99.90;;;;;;4974447;28;20061;-85
2022/01/01 01:31:15;;;;;;;66.35;23.67;;;10.50;99.90;;;;;;4974294;28;20111;-86
2022/01/01 01:33:41;;;;;;;84.47;25.23;;;10.30;99.90;;;;;;4974173;28;20050;-86
2022/01/01 01:36:07;;;;;;;78.47;23.38;;;11.00;99.90;;;;;;4974122;28;20045;-85
2022/01/01 01:38:36;;;;;;;78.53;24.67;;;11.40;99.90;;;;;;4974613;28;20041;-85
2022/01/01 01:41:04;;;;;;;88.60;27.40;;;10.20;99.90;;;;;;4973992;28;20085;-84
2022/01/01 01:43:30;;;;;;;66.25;24.73;;;10.90;99.90;;;;;;4974316;28;20061;-85
2022/01/01 01:45:57;;;;;;;90.22;27.88;;;10.50;99.90;;;;;;4990208;28;20492;-85
2022/01/01 01:48:23;;;;;;;78.15;27.80;;;10.90;99.90;;;;;;4990041;28;20057;-86
2022/01/01 01:50:49;;;;;;;81.32;29.83;;;10.70;99.90;;;;;;4973897;28;20049;-86
2022/01/01 01:53:15;;;;;;;92.10;32.40;;;9.90;99.90;;;;;;4973763;28;20049;-85
2022/01/01 01:55:41;;;;;;;97.63;35.72;;;10.60;99.90;;;;;;4974625;28;20046;-85
2022/01/01 01:58:08;;;;;;;93.18;36.38;;;10.60;99.90;;;;;;4991031;28;20060;-85
2022/01/01 02:01:10;;;;;;;103.82;36.35;;;11.20;99.90;;;;;;4990698;28;20058;-85
2022/01/01 02:03:31;;;;;;;86.55;36.28;;;10.40;99.90;;;;;;4990929;28;20057;-86
2022/01/01 02:09:52;;;;;;;91.35;39.53;;;10.70;99.90;;;;;;5027647;28;20068;-86
2022/01/01 02:12:21;;;;;;;105.53;44.30;;;11.30;99.90;;;;;;4994975;28;20049;-86
2022/01/01 02:17:21;;;;;;;105.00;44.45;;;10.40;99.90;;;;;;4996723;28;20096;-85
2022/01/01 02:19:49;;;;;;;109.18;44.25;;;10.60;99.90;;;;;;4978271;28;20130;-85
2022/01/01 02:22:15;;;;;;;101.68;46.60;;;10.80;99.90;;;;;;4978327;28;20073;-86
2022/01/01 02:24:41;;;;;;;113.38;49.65;;;11.70;99.90;;;;;;4977573;28;20083;-85
2022/01/01 02:27:08;;;;;;;113.75;45.72;;;11.20;99.90;;;;;;4978346;28;20046;-86
2022/01/01 02:29:35;;;;;;;97.28;40.10;;;10.20;99.90;;;;;;4977468;28;20046;-86
2022/01/01 02:32:02;;;;;;;109.82;43.85;;;10.80;99.90;;;;;;4994180;28;20046;-85
2022/01/01 02:34:28;;;;;;;105.97;41.45;;;10.80;99.90;;;;;;4976431;28;20226;-85
2022/01/01 02:36:54;;;;;;;93.82;40.83;;;11.30;99.90;;;;;;4977262;28;20145;-87
2022/01/01 02:39:22;;;;;;;95.63;40.30;;;11.20;99.90;;;;;;4977160;28;20058;-86
2022/01/01 02:41:51;;;;;;;103.72;41.03;;;11.30;99.90;;;;;;4993511;28;20132;-85
2022/01/01 02:44:20;;;;;;;94.80;37.58;;;11.80;99.90;;;;;;4976222;28;20065;-85
2022/01/01 02:46:46;;;;;;;108.55;41.60;;;11.50;99.90;;;;;;4976537;28;20177;-85
2022/01/01 02:49:12;;;;;;;84.57;35.33;;;10.90;99.90;;;;;;4977252;28;20134;-86
2022/01/01 02:52:03;;;;;;;100.53;37.80;;;11.60;99.90;;;;;;4976987;28;20148;-85
2022/01/01 02:54:29;;;;;;;81.15;34.00;;;10.90;99.90;;;;;;4977041;28;20664;-86
2022/01/01 02:56:55;;;;;;;85.47;39.50;;;10.90;99.90;;;;;;5009632;28;20136;-85
2022/01/01 02:59:20;;;;;;;90.97;39.53;;;11.20;99.90;;;;;;4992860;28;20049;-85
2022/01/01 03:01:46;;;;;;;82.53;34.58;;;10.60;99.90;;;;;;4992332;28;20087;-85
2022/01/01 03:04:13;;;;;;;97.70;38.78;;;10.60;99.90;;;;;;4992950;28;20153;-86
2022/01/01 03:06:39;;;;;;;95.25;38.65;;;11.40;99.90;;;;;;4992563;28;20137;-85
2022/01/01 03:09:05;;;;;;;84.72;34.10;;;10.60;99.90;;;;;;4975968;28;20046;-85
2022/01/01 03:11:30;;;;;;;101.72;38.17;;;11.30;99.90;;;;;;4992370;28;20394;-86
2022/01/01 03:13:56;;;;;;;88.88;36.13;;;11.70;99.90;;;;;;4975991;28;20052;-86
2022/01/01 03:16:22;;;;;;;91.60;35.80;;;12.10;99.90;;;;;;4992590;28;20099;-85
2022/01/01 03:18:48;;;;;;;83.07;34.28;;;11.80;99.90;;;;;;4976127;28;20073;-85
2022/01/01 03:21:13;;;;;;;95.95;36.88;;;10.80;99.90;;;;;;4975808;28;20053;-86
2022/01/01 03:23:39;;;;;;;90.03;36.55;;;11.00;99.90;;;;;;4992045;28;20053;-85
2022/01/01 03:26:05;;;;;;;78.57;35.80;;;10.90;99.90;;;;;;4975949;28;20050;-85
2022/01/01 03:28:31;;;;;;;86.68;37.85;;;12.00;99.90;;;;;;4976263;28;20061;-86
2022/01/01 03:30:57;;;;;;;81.47;35.78;;;10.90;99.90;;;;;;4991861;28;20508;-85
2022/01/01 03:33:22;;;;;;;91.38;40.38;;;11.00;99.90;;;;;;4975737;28;20104;-85
2022/01/01 03:35:48;;;;;;;94.80;39.28;;;11.40;99.90;;;;;;4975496;28;20520;-85
2022/01/01 03:38:15;;;;;;;92.93;39.05;;;11.40;99.90;;;;;;4975657;28;20053;-85
2022/01/01 03:40:41;;;;;;;99.68;42.65;;;10.40;99.90;;;;;;4991595;28;20115;-86
2022/01/01 03:43:07;;;;;;;98.30;45.13;;;10.60;99.90;;;;;;4991818;28;20608;-86
2022/01/01 03:45:33;;;;;;;107.63;43.10;;;11.10;99.90;;;;;;4975641;28;20140;-86
2022/01/01 03:47:58;;;;;;;95.50;42.60;;;10.90;99.90;;;;;;4975196;28;20045;-86
2022/01/01 03:50:24;;;;;;;107.45;45.17;;;11.60;99.90;;;;;;4975790;28;20046;-85
2022/01/01 03:52:50;;;;;;;99.15;44.42;;;10.60;99.90;;;;;;4975209;28;20057;-86
2022/01/01 03:55:15;;;;;;;101.65;45.08;;;11.40;99.90;;;;;;4975514;28;20046;-85
2022/01/01 03:57:41;;;;;;;123.97;51.13;;;10.90;99.90;;;;;;4991564;28;20053;-85
2022/01/01 04:00:11;;;;;;;96.93;44.75;;;10.50;99.90;;;;;;4991101;28;20059;-85
2022/01/01 04:02:38;;;;;;;101.15;47.55;;;10.90;99.90;;;;;;4991046;28;20057;-85
2022/01/01 04:05:04;;;;;;;116.43;50.85;;;11.50;99.90;;;;;;4975258;28;20140;-85
2022/01/01 04:07:31;;;;;;;110.00;47.58;;;10.80;99.90;;;;;;4991340;28;20519;-85
2022/01/01 04:09:57;;;;;;;112.70;50.70;;;10.60;99.90;;;;;;4975458;28;20068;-85
2022/01/01 04:12:24;;;;;;;113.47;50.35;;;11.50;99.90;;;;;;4991035;28;20046;-84
2022/01/01 04:14:50;;;;;;;121.55;51.78;;;10.80;99.90;;;;;;4975325;28;20058;-85
2022/01/01 04:17:16;;;;;;;115.50;52.35;;;11.70;99.90;;;;;;5007578;28;20115;-85
2022/01/01 04:19:42;;;;;;;107.88;48.47;;;11.30;99.90;;;;;;4974825;28;20053;-85
2022/01/01 04:22:09;;;;;;;99.32;47.95;;;11.60;99.90;;;;;;4991210;28;20073;-85
2022/01/01 04:24:35;;;;;;;111.88;50.53;;;10.80;99.90;;;;;;4974793;28;20064;-85
2022/01/01 04:27:02;;;;;;;110.32;52.40;;;12.00;99.90;;;;;;5008678;28;20058;-85
2022/01/01 04:29:28;;;;;;;114.78;50.22;;;10.80;99.90;;;;;;4975122;28;20058;-85
2022/01/01 04:31:55;;;;;;;112.20;52.17;;;10.70;99.90;;;;;;4974590;28;20056;-85
2022/01/01 04:34:22;;;;;;;106.88;50.72;;;11.40;99.90;;;;;;4974595;28;20519;-85
2022/01/01 04:36:53;;;;;;;112.55;52.60;;;11.20;99.90;;;;;;4972292;28;20104;-85
2022/01/01 04:39:18;;;;;;;117.78;53.45;;;10.80;99.90;;;;;;4971312;28;20062;-85
2022/01/01 04:41:44;;;;;;;110.63;49.38;;;11.70;99.90;;;;;;4987675;28;20050;-85
2022/01/01 04:44:10;;;;;;;103.70;51.10;;;11.50;99.90;;;;;;4971050;28;20046;-85
2022/01/01 04:46:35;;;;;;;113.32;53.13;;;10.90;99.90;;;;;;4971406;28;20100;-86
2022/01/01 04:49:01;;;;;;;117.22;54.40;;;10.30;99.90;;;;;;4987379;28;20062;-85
2022/01/01 04:51:27;;;;;;;115.53;52.78;;;11.40;99.90;;;;;;4970955;28;20545;-86
2022/01/01 04:53:58;;;;;;;104.05;51.53;;;10.50;99.90;;;;;;4987329;28;20042;-85
2022/01/01 04:56:24;;;;;;;124.20;55.17;;;10.30;99.90;;;;;;4971307;28;20078;-85
2022/01/01 04:58:50;;;;;;;121.68;56.03;;;11.20;99.90;;;;;;4971367;28;20058;-85
2022/01/01 05:01:16;;;;;;;123.82;58.55;;;10.50;99.90;;;;;;4970053;28;20148;-86
2022/01/01 05:03:42;;;;;;;132.05;64.13;;;11.20;99.90;;;;;;4952078;28;20051;-85
2022/01/01 05:06:07;;;;;;;128.55;57.78;;;11.40;99.90;;;;;;4951641;28;20046;-85
2022/01/01 05:08:33;;;;;;;132.20;58.33;;;11.40;99.90;;;;;;4951760;28;20497;-85
2022/01/01 05:10:59;;;;;;;119.88;61.30;;;11.60;99.90;;;;;;4951591;28;20066;-85
2022/01/01 05:13:24;;;;;;;131.05;59.95;;;10.70;99.90;;;;;;4951388;28;20130;-85
2022/01/01 05:15:51;;;;;;;132.13;62.60;;;11.50;99.90;;;;;;4968855;28;20445;-85
2022/01/01 05:18:17;;;;;;;132.50;61.55;;;11.10;99.90;;;;;;4951219;28;20113;-85
2022/01/01 05:20:43;;;;;;;125.80;59.17;;;11.50;99.90;;;;;;4967856;28;20055;-85
2022/01/01 05:23:09;;;;;;;131.38;61.67;;;10.80;99.90;;;;;;4953682;28;20122;-85
2022/01/01 05:25:35;;;;;;;133.95;60.92;;;10.80;99.90;;;;;;4935657;28;20066;-85
2022/01/01 05:28:01;;;;;;;135.48;64.43;;;10.60;99.90;;;;;;4967839;28;20046;-85
2022/01/01 05:30:26;;;;;;;132.95;62.03;;;10.70;99.90;;;;;;4951397;28;20109;-85
2022/01/01 05:32:52;;;;;;;128.07;59.72;;;10.80;99.90;;;;;;4951819;28;20475;-86
2022/01/01 05:35:18;;;;;;;133.65;59.75;;;11.40;99.90;;;;;;4951639;28;20074;-85
2022/01/01 05:37:44;;;;;;;124.60;53.83;;;10.80;99.90;;;;;;4951772;28;20101;-85
2022/01/01 05:40:10;;;;;;;116.55;57.42;;;10.90;99.90;;;;;;4951369;28;20086;-86
2022/01/01 05:42:36;;;;;;;149.45;65.35;;;10.90;99.90;;;;;;4951841;28;20061;-85
2022/01/01 05:45:02;;;;;;;123.88;56.00;;;10.90;99.90;;;;;;4951394;28;20051;-85
2022/01/01 05:47:28;;;;;;;136.88;58.53;;;10.90;99.90;;;;;;4968864;28;20482;-85
2022/01/01 05:49:53;;;;;;;132.68;56.15;;;11.50;99.90;;;;;;4971105;28;20058;-85
2022/01/01 05:52:19;;;;;;;135.10;58.33;;;12.00;99.90;;;;;;4971167;28;20185;-85
2022/01/01 05:54:45;;;;;;;119.72;55.00;;;10.90;99.90;;;;;;4970976;28;20496;-85
2022/01/01 05:57:10;;;;;;;115.05;50.28;;;12.10;99.90;;;;;;4955180;28;20065;-85
2022/01/01 05:59:40;;;;;;;121.07;52.13;;;11.40;99.90;;;;;;4954700;28;20090;-86
2022/01/01 06:02:05;;;;;;;117.97;52.47;;;11.70;99.90;;;;;;4962059;28;20058;-85
2022/01/01 06:04:31;;;;;;;118.15;52.17;;;11.50;99.90;;;;;;4989923;28;20052;-85
2022/01/01 06:06:57;;;;;;;131.30;50.60;;;11.60;99.90;;;;;;4974503;28;20053;-85
2022/01/01 06:09:23;;;;;;;132.25;53.80;;;10.90;99.90;;;;;;4973605;28;20058;-86
2022/01/01 06:11:48;;;;;;;120.80;47.85;;;10.90;99.90;;;;;;4973845;28;20057;-85
2022/01/01 06:14:16;;;;;;;103.57;44.67;;;10.90;99.90;;;;;;4974045;28;20085;-85
2022/01/01 06:16:41;;;;;;;117.78;46.63;;;10.90;99.90;;;;;;4974131;28;20058;-85
2022/01/01 06:19:07;;;;;;;118.70;44.20;;;10.90;99.90;;;;;;4990040;28;20059;-85
2022/01/01 06:21:32;;;;;;;106.50;42.58;;;10.90;99.90;;;;;;4974501;28;20038;-85
2022/01/01 06:23:58;;;;;;;104.32;37.35;;;10.90;99.90;;;;;;4976052;28;20050;-86
2022/01/01 06:26:24;;;;;;;107.10;33.75;;;10.90;99.90;;;;;;4957539;28;20109;-85
2022/01/01 06:28:49;;;;;;;122.90;38.83;;;10.90;99.90;;;;;;4976592;28;20046;-85
2022/01/01 06:31:15;;;;;;;102.88;35.83;;;10.90;99.90;;;;;;4976586;28;20484;-85
2022/01/01 06:33:42;;;;;;;125.68;37.55;;;10.80;99.90;;;;;;4976472;28;20052;-85
2022/01/01 06:36:11;;;;;;;134.05;38.35;;;10.80;99.90;;;;;;4976741;28;20096;-85
2022/01/01 06:38:38;;;;;;;129.77;37.58;;;10.70;99.90;;;;;;4976703;28;20064;-86
2022/01/01 06:41:04;;;;;;;128.07;37.30;;;10.70;99.90;;;;;;5010478;28;20050;-86
2022/01/01 06:43:30;;;;;;;138.38;37.72;;;11.20;99.90;;;;;;4977020;28;20400;-85
2022/01/01 06:45:55;;;;;;;139.38;39.17;;;10.80;99.90;;;;;;4976833;28;20054;-85
2022/01/01 06:48:21;;;;;;;115.65;34.38;;;10.70;99.90;;;;;;4992964;28;20892;-85
2022/01/01 06:50:46;;;;;;;128.98;38.17;;;10.70;99.90;;;;;;5010159;28;20088;-85
2022/01/01 06:53:12;;;;;;;136.10;39.05;;;10.70;99.90;;;;;;4975959;28;20073;-85
2022/01/01 06:55:39;;;;;;;132.27;37.85;;;10.70;99.90;;;;;;4976379;28;20045;-85
2022/01/01 06:58:05;;;;;;;147.10;39.38;;;10.80;99.90;;;;;;4992057;28;20111;-86
2022/01/01 07:00:31;;;;;;;138.93;38.00;;;10.80;99.90;;;;;;4976218;28;20054;-85
2022/01/01 07:02:56;;;;;;;131.75;38.00;;;10.80;99.90;;;;;;4975952;28;20069;-85
2022/01/01 07:05:22;;;;;;;123.68;35.58;;;10.80;99.90;;;;;;4992347;28;20050;-85
2022/01/01 07:07:47;;;;;;;115.82;34.58;;;10.80;99.90;;;;;;4976562;28;20053;-86
2022/01/01 07:10:13;;;;;;;111.63;37.28;;;10.80;99.90;;;;;;4992272;28;20053;-85
2022/01/01 07:12:40;;;;;;;115.80;33.00;;;10.80;99.90;;;;;;4976202;28;20508;-85
2022/01/01 07:15:07;;;;;;;105.22;34.70;;;10.90;99.90;;;;;;4976581;28;20468;-85
2022/01/01 07:17:33;;;;;;;104.72;32.63;;;10.90;99.90;;;;;;4976526;28;20132;-85
2022/01/01 07:19:59;;;;;;;98.72;32.50;;;11.00;99.90;;;;;;4992704;28;20117;-85
2022/01/01 07:22:24;;;;;;;98.30;31.35;;;11.00;99.90;;;;;;4976494;28;20148;-85
2022/01/01 07:24:50;;;;;;;97.68;31.25;;;10.90;99.90;;;;;;4976757;28;20056;-85
2022/01/01 07:27:16;;;;;;;100.80;30.73;;;11.00;99.90;;;;;;4993943;28;20496;-85
2022/01/01 07:29:42;;;;;;;90.57;30.33;;;11.10;99.90;;;;;;4993213;28;20069;-85
2022/01/01 07:32:08;;;;;;;91.38;28.73;;;11.10;99.90;;;;;;4976647;28;20116;-86
2022/01/01 07:34:34;;;;;;;81.65;28.38;;;11.40;99.90;;;;;;4976332;28;20056;-85
2022/01/01 07:37:00;;;;;;;79.75;27.35;;;11.10;99.90;;;;;;4976588;28;20054;-85
2022/01/01 07:39:25;;;;;;;89.07;28.75;;;11.20;99.90;;;;;;4976664;28;20056;-85
2022/01/01 07:41:51;;;;;;;74.97;28.90;;;11.20;99.90;;;;;;4976258;28;20057;-85
2022/01/01 07:44:17;;;;;;;73.47;28.00;;;11.20;99.90;;;;;;4992613;28;20477;-85
2022/01/01 07:46:42;;;;;;;80.35;27.85;;;11.80;99.90;;;;;;4992212;28;20069;-86
2022/01/01 07:49:08;;;;;;;80.32;27.88;;;11.20;99.90;;;;;;4975822;28;20383;-85
2022/01/01 07:51:34;;;;;;;79.43;27.63;;;11.20;99.90;;;;;;4992236;28;20050;-85
2022/01/01 07:54:00;;;;;;;73.60;27.23;;;11.20;99.90;;;;;;4992790;28;20535;-85
2022/01/01 07:56:25;;;;;;;85.80;26.17;;;11.20;99.90;;;;;;4977375;28;20060;-85
2022/01/01 07:58:51;;;;;;;90.80;25.83;;;11.30;99.90;;;;;;4977399;28;20057;-85
2022/01/01 08:01:16;;;;;;;71.97;24.80;;;11.30;99.90;;;;;;4993319;28;20054;-84
2022/01/01 08:03:42;;;;;;;76.82;24.67;;;11.30;99.90;;;;;;4959921;28;20050;-85
2022/01/01 08:06:08;;;;;;;70.40;26.00;;;11.30;99.90;;;;;;4966462;28;20069;-85
2022/01/01 08:08:34;;;;;;;81.35;26.73;;;11.30;99.90;;;;;;4965646;28;20049;-85
2022/01/01 08:10:59;;;;;;;68.57;24.10;;;11.30;99.90;;;;;;4965727;28;20055;-85
2022/01/01 08:13:25;;;;;;;68.57;25.42;;;11.60;99.90;;;;;;4994062;28;20045;-85
2022/01/01 08:15:52;;;;;;;79.88;26.95;;;11.40;99.90;;;;;;4958499;28;20053;-85
2022/01/01 08:18:19;;;;;;;81.68;26.00;;;11.50;99.90;;;;;;4972377;28;20058;-86
2022/01/01 08:20:46;;;;;;;76.10;27.67;;;11.50;99.90;;;;;;4956168;28;20133;-85
2022/01/01 08:23:13;;;;;;;77.15;26.25;;;11.50;99.90;;;;;;4956066;28;20053;-85
2022/01/01 08:25:39;;;;;;;65.97;25.10;;;11.90;99.90;;;;;;4972060;28;20469;-85
2022/01/01 08:28:06;;;;;;;74.57;27.25;;;12.80;99.90;;;;;;4972050;28;20129;-86
2022/01/01 08:30:33;;;;;;;71.07;25.85;;;11.60;99.90;;;;;;4955338;28;20467;-85
2022/01/01 08:33:02;;;;;;;71.00;28.92;;;11.60;99.90;;;;;;4955390;28;20054;-85
2022/01/01 08:35:29;;;;;;;85.30;29.70;;;11.60;99.90;;;;;;4971415;28;20088;-85
2022/01/01 08:37:56;;;;;;;77.80;28.33;;;11.80;99.90;;;;;;4955599;28;20042;-85
2022/01/01 08:40:26;;;;;;;91.32;30.50;;;11.60;99.90;;;;;;4955533;28;20081;-85
2022/01/01 08:42:51;;;;;;;87.10;30.35;;;11.60;99.90;;;;;;4955464;28;20065;-85
2022/01/01 08:45:17;;;;;;;86.53;32.72;;;11.60;99.90;;;;;;4971842;28;20042;-85
2022/01/01 08:47:43;;;;;;;94.07;34.80;;;11.50;99.90;;;;;;4955829;28;20046;-85
2022/01/01 08:50:09;;;;;;;90.07;34.08;;;12.10;99.90;;;;;;4971260;28;20049;-85
2022/01/01 08:52:35;;;;;;;87.05;34.05;;;11.60;99.90;;;;;;4970821;28;20101;-85
2022/01/01 08:55:01;;;;;;;85.40;33.10;;;11.60;99.90;;;;;;4971142;28;20097;-85
2022/01/01 08:57:27;;;;;;;100.35;36.88;;;11.60;99.90;;;;;;4955680;28;20077;-85
2022/01/01 08:59:53;;;;;;;92.82;35.28;;;11.60;99.90;;;;;;4955208;28;20053;-85
2022/01/01 09:02:19;;;;;;;79.78;35.00;;;11.60;99.90;;;;;;4980344;28;20103;-85
2022/01/01 09:04:45;;;;;;;92.57;35.85;;;11.60;99.90;;;;;;4974839;28;20523;-85
2022/01/01 09:07:12;;;;;;;82.90;33.97;;;11.70;99.90;;;;;;4974723;28;20050;-85
2022/01/01 09:09:39;;;;;;;77.68;31.35;;;11.70;99.90;;;;;;4974405;28;20084;-85
2022/01/01 09:12:06;;;;;;;77.15;32.30;;;11.70;99.90;;;;;;4974806;28;20795;-85
2022/01/01 09:14:32;;;;;;;75.10;32.85;;;11.80;99.90;;;;;;4974781;28;20111;-85
2022/01/01 09:16:58;;;;;;;76.47;31.88;;;11.90;99.90;;;;;;4990757;28;20057;-85
2022/01/01 09:19:23;;;;;;;70.20;33.78;;;11.90;99.90;;;;;;4990483;28;20045;-85
2022/01/01 09:21:49;;;;;;;56.50;26.83;;;11.90;99.90;;;;;;4976274;28;20050;-85
2022/01/01 09:24:16;;;;;;;72.03;29.08;;;12.00;99.90;;;;;;4977983;28;20060;-85
2022/01/01 09:26:41;;;;;;;75.05;29.55;;;12.30;99.90;;;;;;4978343;28;20180;-84
2022/01/01 09:29:09;;;;;;;61.08;26.83;;;12.10;99.90;;;;;;4978157;28;20132;-85
2022/01/01 09:31:41;;;;;;;55.28;25.60;;;12.20;99.90;;;;;;4978271;28;20056;-85
2022/01/01 09:34:08;;;;;;;59.72;25.67;;;12.30;99.90;;;;;;4994475;28;20566;-85
2022/01/01 09:36:35;;;;;;;68.20;24.17;;;12.50;99.90;;;;;;4977861;28;20144;-85
2022/01/01 09:39:04;;;;;;;53.70;26.52;;;12.30;99.90;;;;;;4994474;28;20069;-84
2022/01/01 09:41:30;;;;;;;52.42;26.13;;;12.40;99.90;;;;;;4977829;28;20613;-85
2022/01/01 09:43:58;;;;;;;46.08;23.90;;;12.10;99.90;;;;;;4977801;28;20131;-84
2022/01/01 09:46:27;;;;;;;49.83;24.55;;;12.30;99.90;;;;;;4978659;28;20061;-84
2022/01/01 09:48:54;;;;;;;48.22;23.25;;;13.00;99.90;;;;;;4979149;28;20141;-84
2022/01/01 09:51:21;;;;;;;46.92;21.65;;;12.40;99.90;;;;;;4978947;28;20058;-85
2022/01/01 09:53:47;;;;;;;48.40;23.48;;;13.20;99.90;;;;;;4994032;28;20112;-85
2022/01/01 09:56:13;;;;;;;42.25;23.08;;;12.10;99.90;;;;;;4977693;28;20053;-85
2022/01/01 09:58:39;;;;;;;47.75;22.42;;;12.70;99.90;;;;;;4977354;28;20068;-85
2022/01/01 10:01:07;;;;;;;44.95;20.95;;;12.80;99.90;;;;;;4976963;28;20572;-85
2022/01/01 10:03:34;;;;;;;42.55;22.92;;;11.50;99.90;;;;;;4977225;28;20057;-85
2022/01/01 10:06:05;;;;;;;47.38;23.02;;;13.00;99.90;;;;;;4993457;28;20068;-84
2022/01/01 10:08:32;;;;;;;55.17;22.17;;;13.10;99.90;;;;;;4977635;28;20080;-84
2022/01/01 10:11:01;;;;;;;48.47;20.48;;;13.20;99.90;;;;;;4977249;28;20068;-84
2022/01/01 10:13:32;;;;;;;49.92;23.20;;;13.00;99.90;;;;;;4976826;28;20056;-85
2022/01/01 10:16:01;;;;;;;45.08;23.63;;;12.50;99.90;;;;;;4976486;28;20058;-85
2022/01/01 10:18:32;;;;;;;44.65;21.45;;;13.30;99.90;;;;;;4976905;28;20512;-85
2022/01/01 10:21:09;;;;;;;50.53;22.15;;;12.90;99.90;;;;;;4977191;28;20516;-84
2022/01/01 10:23:37;;;;;;;40.00;19.40;;;12.60;99.90;;;;;;4976995;28;20412;-85
2022/01/01 10:29:11;;;;;;;46.15;19.25;;;12.60;99.90;;;;;;4993529;28;20167;-84
2022/01/01 10:31:39;;;;;;;45.70;20.23;;;13.10;99.90;;;;;;4977637;28;20045;-84
2022/01/01 10:34:14;;;;;;;38.15;19.65;;;12.60;99.90;;;;;;4976505;28;20050;-85
2022/01/01 10:36:43;;;;;;;42.30;19.02;;;12.60;99.90;;;;;;4977325;28;20050;-84
2022/01/01 10:39:10;;;;;;;44.10;19.83;;;13.70;99.90;;;;;;4976984;28;20061;-85
2022/01/01 10:42:01;;;;;;;36.15;19.25;;;12.20;99.90;;;;;;4977259;28;20056;-84
2022/01/01 10:44:28;;;;;;;39.88;20.23;;;12.50;99.90;;;;;;4977086;28;20050;-84
2022/01/01 10:46:55;;;;;;;37.25;17.33;;;12.60;99.90;;;;;;4977568;28;20093;-84
2022/01/01 10:52:13;;;;;;;37.45;18.83;;;13.30;99.90;;;;;;4992350;28;20049;-84
2022/01/01 10:54:50;;;;;;;37.22;18.65;;;12.50;99.90;;;;;;4956885;28;20050;-84
2022/01/01 10:57:58;;;;;;;31.00;15.80;;;13.50;99.90;;;;;;4972827;28;20112;-84
2022/01/01 11:00:25;;;;;;;39.00;16.50;;;12.40;99.90;;;;;;4969296;28;20407;-85
2022/01/01 11:02:57;;;;;;;35.08;16.08;;;12.10;99.90;;;;;;4964092;28;20306;-85
2022/01/01 11:05:33;;;;;;;31.08;16.40;;;12.60;99.90;;;;;;4956587;28;20050;-84
2022/01/01 11:08:00;;;;;;;35.38;15.32;;;12.60;99.90;;;;;;4956665;28;20185;-85
2022/01/01 11:10:27;;;;;;;25.65;14.50;;;12.30;99.90;;;;;;4972309;28;20053;-85
2022/01/01 11:12:54;;;;;;;33.08;13.95;;;12.70;99.90;;;;;;4956372;28;20697;-85
2022/01/01 11:15:23;;;;;;;32.00;13.88;;;13.20;99.90;;;;;;4956739;28;20054;-85
2022/01/01 11:17:49;;;;;;;27.55;14.10;;;12.50;99.90;;;;;;4956954;28;20516;-85
2022/01/01 11:20:17;;;;;;;25.88;13.98;;;12.80;99.90;;;;;;4956923;28;20055;-85
2022/01/01 11:22:43;;;;;;;32.55;13.05;;;13.20;99.90;;;;;;4956688;28;20050;-85
2022/01/01 11:25:10;;;;;;;33.25;12.60;;;13.40;99.90;;;;;;4957163;28;20053;-85
2022/01/01 11:27:36;;;;;;;26.30;13.13;;;12.80;99.90;;;;;;4955984;28;20061;-84
2022/01/01 11:30:08;;;;;;;29.05;13.50;;;13.40;99.90;;;;;;4956678;28;20054;-85
2022/01/01 11:32:42;;;;;;;26.10;12.75;;;12.80;99.90;;;;;;4956434;28;20130;-85
2022/01/01 11:35:17;;;;;;;20.58;10.70;;;13.20;99.90;;;;;;4955660;28;20058;-84
2022/01/01 11:37:59;;;;;;;22.65;10.35;;;12.50;99.90;;;;;;4971323;28;20050;-84
2022/01/01 11:40:27;;;;;;;24.63;9.77;;;12.80;99.90;;;;;;4956279;28;20065;-85
2022/01/01 11:42:53;;;;;;;16.98;9.15;;;12.80;99.90;;;;;;4955954;28;20054;-85
2022/01/01 11:45:45;;;;;;;24.38;9.88;;;12.80;99.90;;;;;;4954703;28;20050;-84
2022/01/01 11:48:35;;;;;;;20.40;8.52;;;12.80;99.90;;;;;;4954915;28;20819;-85
2022/01/01 11:51:48;;;;;;;22.63;9.95;;;12.90;99.90;;;;;;4955888;28;20050;-85
2022/01/01 11:54:14;;;;;;;19.92;7.80;;;12.90;99.90;;;;;;4955352;28;20081;-85
2022/01/01 11:56:49;;;;;;;16.95;7.53;;;12.60;99.90;;;;;;4955292;28;20124;-84
2022/01/01 11:59:19;;;;;;;20.23;7.18;;;13.70;99.90;;;;;;4955290;28;20050;-85
2022/01/01 12:01:45;;;;;;;19.02;7.72;;;12.60;99.90;;;;;;4957051;28;20058;-85
2022/01/01 12:04:32;;;;;;;19.00;6.63;;;13.20;99.90;;;;;;4974665;28;20061;-85
2022/01/01 12:07:09;;;;;;;16.80;7.07;;;13.00;99.90;;;;;;4974150;28;20050;-84
2022/01/01 12:10:06;;;;;;;19.08;8.05;;;13.50;99.90;;;;;;4974902;28;20080;-85
2022/01/01 12:12:49;;;;;;;19.77;6.78;;;12.90;99.90;;;;;;4954988;28;20208;-85
2022/01/01 12:15:24;;;;;;;14.27;6.22;;;12.80;99.90;;;;;;4970916;28;20420;-85
2022/01/01 12:18:03;;;;;;;21.33;6.72;;;13.60;99.90;;;;;;4965110;28;20479;-84
2022/01/01 12:20:31;;;;;;;17.63;6.60;;;12.80;99.90;;;;;;4973599;28;20452;-84
2022/01/01 12:22:58;;;;;;;13.40;6.35;;;13.00;99.90;;;;;;4954709;28;20079;-84
2022/01/01 12:25:32;;;;;;;21.50;6.72;;;13.30;99.90;;;;;;4971034;28;20069;-84
2022/01/01 12:28:02;;;;;;;18.00;7.05;;;13.30;99.90;;;;;;4970949;28;20405;-84
2022/01/01 12:30:50;;;;;;;11.55;5.30;;;12.90;99.90;;;;;;4954618;28;20073;-84
2022/01/01 12:33:41;;;;;;;17.13;6.80;;;12.80;99.90;;;;;;4955032;28;20072;-84
2022/01/01 12:36:12;;;;;;;19.17;6.15;;;12.90;99.90;;;;;;4954808;28;20065;-85
2022/01/01 12:38:48;;;;;;;12.18;5.57;;;12.80;99.90;;;;;;4970670;28;20096;-85
2022/01/01 12:41:34;;;;;;;18.58;5.70;;;12.70;99.90;;;;;;4970923;28;20445;-85